Time;durP1;ratioP1;P1;durP2;ratioP2;P2;SDS_P1;SDS_P2;PMS_P1;PMS_P2;Temp;Humidity;BMP_temperature;BMP_pressure;BME280_temperature;BME280_humidity;BME280_pressure;Samples;Min_cycle;Max_cycle;Signal;HPM_P1;HPM_P2
2022/03/03 00:01:36;;;;;;;58.17;29.60;;;1.30;99.90;;;;;;5059872;28;20040;-59
2022/03/03 00:04:01;;;;;;;65.38;30.75;;;1.20;99.90;;;;;;5061737;28;20114;-56
2022/03/03 00:06:27;;;;;;;60.30;30.45;;;1.20;99.90;;;;;;5061158;28;20114;-55
2022/03/03 00:08:53;;;;;;;62.78;29.73;;;1.20;99.90;;;;;;5060759;28;20128;-56
2022/03/03 00:11:19;;;;;;;60.95;29.08;;;1.20;99.90;;;;;;5065227;28;20372;-56
2022/03/03 00:13:44;;;;;;;59.42;29.55;;;1.10;99.90;;;;;;5060962;28;20088;-61
2022/03/03 00:16:10;;;;;;;57.60;29.75;;;1.00;99.90;;;;;;5056665;28;20044;-61
2022/03/03 00:18:36;;;;;;;63.63;29.98;;;1.00;99.90;;;;;;5057043;28;20041;-56
2022/03/03 00:21:01;;;;;;;56.95;29.83;;;1.00;99.90;;;;;;5065246;28;20040;-56
2022/03/03 00:23:27;;;;;;;61.63;31.42;;;0.90;99.90;;;;;;5061178;28;20055;-56
2022/03/03 00:25:53;;;;;;;60.00;30.48;;;0.90;99.90;;;;;;5054944;28;20044;-56
2022/03/03 00:28:18;;;;;;;58.65;30.85;;;0.90;99.90;;;;;;5066558;28;20090;-56
2022/03/03 00:30:44;;;;;;;61.90;31.17;;;0.90;99.90;;;;;;5064006;28;20048;-56
2022/03/03 00:33:10;;;;;;;61.65;30.48;;;0.90;99.90;;;;;;5064762;28;20036;-56
2022/03/03 00:35:35;;;;;;;59.95;29.95;;;0.90;99.90;;;;;;5048309;28;20087;-56
2022/03/03 00:38:01;;;;;;;58.70;31.88;;;0.90;99.90;;;;;;5056386;28;20189;-58
2022/03/03 00:40:27;;;;;;;60.05;30.05;;;0.80;99.90;;;;;;5060923;28;20106;-56
2022/03/03 00:42:53;;;;;;;62.30;29.65;;;0.80;99.90;;;;;;5066575;28;20375;-61
2022/03/03 00:45:18;;;;;;;70.65;33.55;;;0.80;99.90;;;;;;5065582;28;20040;-59
2022/03/03 00:47:44;;;;;;;62.55;31.67;;;0.80;99.90;;;;;;5065066;28;20037;-57
2022/03/03 00:50:10;;;;;;;57.70;26.45;;;0.70;99.90;;;;;;5053727;28;20478;-59
2022/03/03 00:52:35;;;;;;;57.30;28.70;;;0.70;99.90;;;;;;5054350;28;20073;-58
2022/03/03 00:55:02;;;;;;;55.25;27.63;;;0.70;99.90;;;;;;5049675;28;20049;-56
2022/03/03 00:57:28;;;;;;;57.35;27.90;;;0.70;99.90;;;;;;5066484;28;20358;-58
2022/03/03 00:59:53;;;;;;;59.17;29.73;;;0.60;99.90;;;;;;5062702;28;20044;-56
2022/03/03 01:02:19;;;;;;;55.83;29.58;;;0.50;99.90;;;;;;5066228;28;20053;-56
2022/03/03 01:04:45;;;;;;;57.53;30.13;;;0.50;99.90;;;;;;5061543;28;20047;-59
2022/03/03 01:07:10;;;;;;;56.38;28.30;;;2.50;99.90;;;;;;5064368;28;20080;-56
2022/03/03 01:09:36;;;;;;;54.40;27.77;;;0.40;99.90;;;;;;5064754;28;20062;-56
2022/03/03 01:12:02;;;;;;;55.30;29.73;;;0.40;99.90;;;;;;5062097;28;20064;-56
2022/03/03 01:14:28;;;;;;;56.92;27.38;;;0.40;99.90;;;;;;5061239;28;20043;-56
2022/03/03 01:16:54;;;;;;;53.95;27.80;;;0.40;99.90;;;;;;5063096;28;20041;-56
2022/03/03 01:19:20;;;;;;;59.30;29.25;;;0.40;99.90;;;;;;5063614;28;20044;-56
2022/03/03 01:21:46;;;;;;;55.25;28.42;;;0.30;99.90;;;;;;5060585;28;20043;-56
2022/03/03 01:24:12;;;;;;;56.47;28.25;;;0.30;99.90;;;;;;5056715;28;20084;-56
2022/03/03 01:26:37;;;;;;;55.65;28.98;;;0.30;99.90;;;;;;5061139;28;20111;-56
2022/03/03 01:29:03;;;;;;;56.97;28.73;;;0.30;99.90;;;;;;5065968;28;20049;-56
2022/03/03 01:31:29;;;;;;;48.25;25.42;;;0.30;99.90;;;;;;5060948;28;20051;-55
2022/03/03 01:33:55;;;;;;;56.63;30.10;;;0.30;99.90;;;;;;5065953;28;20044;-58
2022/03/03 01:36:20;;;;;;;55.40;28.40;;;0.20;99.90;;;;;;5066146;28;20049;-56
2022/03/03 01:38:46;;;;;;;59.78;28.38;;;0.20;99.90;;;;;;5050715;28;20044;-59
2022/03/03 01:41:12;;;;;;;53.65;28.27;;;0.20;99.90;;;;;;5063080;28;20115;-55
2022/03/03 01:43:38;;;;;;;49.20;25.83;;;0.10;99.90;;;;;;5066101;28;20040;-56
2022/03/03 01:46:04;;;;;;;53.33;27.60;;;0.10;99.90;;;;;;5055961;28;20045;-61
2022/03/03 01:48:30;;;;;;;52.85;26.33;;;0.10;99.90;;;;;;5047711;28;20132;-56
2022/03/03 01:50:56;;;;;;;51.30;25.55;;;0.10;99.90;;;;;;5060170;28;20112;-56
2022/03/03 01:53:21;;;;;;;53.58;26.75;;;0.10;99.90;;;;;;5058932;28;20079;-56
2022/03/03 01:55:49;;;;;;;54.05;26.52;;;0.10;99.90;;;;;;5061261;28;20098;-56
2022/03/03 01:58:15;;;;;;;51.25;26.75;;;0.00;99.90;;;;;;5056996;28;20541;-56
2022/03/03 02:00:42;;;;;;;51.97;28.30;;;0.00;99.90;;;;;;5061478;28;20119;-56
2022/03/03 02:03:09;;;;;;;53.30;26.55;;;0.00;99.90;;;;;;5052754;28;20036;-56
2022/03/03 02:05:35;;;;;;;56.38;26.90;;;-0.10;99.90;;;;;;5061660;28;20513;-56
2022/03/03 02:08:01;;;;;;;49.00;25.02;;;-0.10;99.90;;;;;;5064467;28;20051;-56
2022/03/03 02:10:27;;;;;;;54.30;25.98;;;-0.10;99.90;;;;;;5063172;28;20376;-56
2022/03/03 02:12:53;;;;;;;57.95;28.73;;;-0.20;99.90;;;;;;5056533;28;20060;-56
2022/03/03 02:15:20;;;;;;;50.25;25.35;;;-0.20;99.90;;;;;;5059770;28;20040;-56
2022/03/03 02:17:46;;;;;;;49.70;26.60;;;-0.20;99.90;;;;;;5066023;28;20609;-56
2022/03/03 02:20:26;;;;;;;48.05;25.30;;;-0.20;99.90;;;;;;5057553;28;20037;-56
2022/03/03 02:22:54;;;;;;;53.20;26.73;;;-0.20;99.90;;;;;;5049494;28;20045;-56
2022/03/03 02:25:20;;;;;;;52.70;27.90;;;-0.20;99.90;;;;;;5059316;28;20037;-56
2022/03/03 02:27:46;;;;;;;53.10;27.42;;;-0.20;99.90;;;;;;5065877;28;20463;-56
2022/03/03 02:30:15;;;;;;;43.63;24.33;;;-0.20;99.90;;;;;;5055454;28;20044;-56
2022/03/03 02:32:40;;;;;;;53.17;27.83;;;0.00;99.90;;;;;;5077552;28;20144;-56
2022/03/03 02:35:07;;;;;;;48.67;26.35;;;-0.30;99.90;;;;;;5055115;28;20041;-56
2022/03/03 02:37:38;;;;;;;50.55;26.10;;;-0.30;99.90;;;;;;5052303;28;20608;-56
2022/03/03 02:40:07;;;;;;;51.85;25.08;;;-0.30;99.90;;;;;;5056971;28;20070;-56
2022/03/03 02:42:33;;;;;;;48.67;25.58;;;-0.30;99.90;;;;;;5059179;28;20284;-57
2022/03/03 02:44:59;;;;;;;57.63;27.52;;;-0.30;99.90;;;;;;5055875;28;20060;-57
2022/03/03 02:47:24;;;;;;;49.97;26.00;;;-0.40;99.90;;;;;;5065918;28;20062;-56
2022/03/03 02:49:50;;;;;;;47.95;25.70;;;-0.40;99.90;;;;;;5057223;28;20060;-56
2022/03/03 02:52:16;;;;;;;45.03;27.02;;;-0.40;99.90;;;;;;5056736;28;20053;-56
2022/03/03 02:54:41;;;;;;;50.63;26.65;;;-0.40;99.90;;;;;;5047355;28;20123;-56
2022/03/03 02:59:51;;;;;;;;;;;-0.50;99.90;;;;;;5064264;28;20555;-57
2022/03/03 03:02:17;;;;;;;51.60;26.13;;;-0.50;99.90;;;;;;5063046;28;19924;-56
2022/03/03 03:04:43;;;;;;;51.20;26.65;;;-0.60;99.90;;;;;;5063356;28;20091;-56
2022/03/03 03:07:09;;;;;;;46.30;26.40;;;-0.50;99.90;;;;;;5061766;28;20457;-56
2022/03/03 03:09:34;;;;;;;49.78;25.77;;;-0.50;99.90;;;;;;5062241;28;20118;-56
2022/03/03 03:12:00;;;;;;;49.53;25.15;;;-0.50;99.90;;;;;;5058080;28;20084;-56
2022/03/03 03:14:27;;;;;;;50.22;26.60;;;-0.30;99.90;;;;;;5049403;28;20064;-56
2022/03/03 03:16:52;;;;;;;50.70;26.15;;;-0.50;99.90;;;;;;5066931;28;20059;-56
2022/03/03 03:19:18;;;;;;;51.88;25.40;;;-0.60;99.90;;;;;;5060666;28;20040;-56
2022/03/03 03:21:44;;;;;;;51.00;26.08;;;-0.60;99.90;;;;;;5062975;28;20136;-56
2022/03/03 03:24:09;;;;;;;52.53;26.75;;;-0.60;99.90;;;;;;5067593;28;20074;-56
2022/03/03 03:26:35;;;;;;;51.92;26.65;;;-0.50;99.90;;;;;;5058972;28;20136;-56
2022/03/03 03:29:01;;;;;;;49.42;26.70;;;-0.60;99.90;;;;;;5066804;28;20060;-56
2022/03/03 03:31:27;;;;;;;51.80;25.80;;;-0.50;99.90;;;;;;5061907;28;20417;-56
2022/03/03 03:33:53;;;;;;;48.40;26.23;;;-0.50;99.90;;;;;;5068626;28;20422;-56
2022/03/03 03:36:19;;;;;;;53.15;27.80;;;-0.60;99.90;;;;;;5068051;28;20051;-57
2022/03/03 03:38:45;;;;;;;48.33;26.77;;;-0.60;99.90;;;;;;5059515;28;20053;-56
2022/03/03 03:41:11;;;;;;;49.72;27.48;;;-0.60;99.90;;;;;;5064410;28;20129;-56
2022/03/03 03:43:37;;;;;;;45.50;25.52;;;-0.60;99.90;;;;;;5068538;28;20036;-57
2022/03/03 03:46:03;;;;;;;55.65;28.02;;;-0.60;99.90;;;;;;5068984;28;20120;-56
2022/03/03 03:48:29;;;;;;;58.72;27.80;;;-0.60;99.90;;;;;;5058456;28;20609;-56
2022/03/03 03:50:54;;;;;;;54.95;26.90;;;-0.70;99.90;;;;;;5065335;28;20041;-56
2022/03/03 03:53:20;;;;;;;49.40;26.63;;;-0.60;99.90;;;;;;5066230;28;20076;-56
2022/03/03 03:55:46;;;;;;;46.88;26.58;;;0.00;99.90;;;;;;5056212;28;20451;-54
2022/03/03 03:58:11;;;;;;;48.47;27.52;;;1.00;99.90;;;;;;5067547;28;20527;-56
2022/03/03 04:00:37;;;;;;;53.83;28.17;;;-0.70;99.90;;;;;;5062321;28;20084;-56
2022/03/03 04:03:03;;;;;;;52.50;27.05;;;-0.70;99.90;;;;;;5063266;28;20051;-56
2022/03/03 04:05:29;;;;;;;44.80;24.77;;;-0.70;99.90;;;;;;5056655;28;20105;-56
2022/03/03 04:07:54;;;;;;;48.10;27.02;;;-0.80;99.90;;;;;;5067089;28;20052;-56
2022/03/03 04:10:20;;;;;;;53.42;26.02;;;-0.80;99.90;;;;;;5065753;28;20145;-56
2022/03/03 04:12:46;;;;;;;56.08;26.13;;;-0.80;99.90;;;;;;5062968;28;20048;-57
2022/03/03 04:15:12;;;;;;;50.25;25.92;;;-0.80;99.90;;;;;;5059311;28;20071;-58
2022/03/03 04:17:38;;;;;;;49.95;26.20;;;-0.30;99.90;;;;;;5066722;28;20048;-56
2022/03/03 04:20:07;;;;;;;47.50;24.63;;;-0.90;99.90;;;;;;5058204;28;20161;-58
2022/03/03 04:22:34;;;;;;;52.88;26.20;;;-0.90;99.90;;;;;;5065017;28;20044;-56
2022/03/03 04:25:01;;;;;;;52.33;26.45;;;-1.00;99.90;;;;;;5062217;28;20047;-56
2022/03/03 04:27:26;;;;;;;43.38;23.67;;;-1.00;99.90;;;;;;5066096;28;20051;-56
2022/03/03 04:29:52;;;;;;;50.28;25.63;;;-1.00;99.90;;;;;;5063608;28;20442;-60
2022/03/03 04:32:18;;;;;;;48.92;24.98;;;-1.00;99.90;;;;;;5062788;28;20052;-62
2022/03/03 04:34:44;;;;;;;48.38;24.42;;;-1.00;99.90;;;;;;5048142;28;20052;-63
2022/03/03 04:37:10;;;;;;;47.55;25.20;;;-0.30;99.90;;;;;;5053441;28;20131;-62
2022/03/03 04:39:36;;;;;;;50.25;25.98;;;-1.00;99.90;;;;;;5065388;28;20106;-56
2022/03/03 04:42:02;;;;;;;44.42;25.05;;;-1.10;99.90;;;;;;5062069;28;20045;-62
2022/03/03 04:44:28;;;;;;;46.40;24.67;;;-1.10;99.90;;;;;;5051367;28;20037;-56
2022/03/03 04:46:54;;;;;;;48.58;24.70;;;-1.10;99.90;;;;;;5082271;28;20154;-56
2022/03/03 04:49:20;;;;;;;50.53;24.13;;;-1.10;99.90;;;;;;5057585;28;20060;-60
2022/03/03 04:51:45;;;;;;;44.03;22.65;;;-1.10;99.90;;;;;;5066926;28;20040;-64
2022/03/03 04:54:11;;;;;;;46.67;24.88;;;-1.20;99.90;;;;;;5063192;28;20082;-60
2022/03/03 04:56:38;;;;;;;43.70;23.60;;;-1.20;99.90;;;;;;5061689;28;20056;-60
2022/03/03 04:59:05;;;;;;;44.33;22.67;;;-1.20;99.90;;;;;;5064858;28;20032;-58
2022/03/03 05:01:31;;;;;;;43.53;23.20;;;-1.10;99.90;;;;;;5061566;28;20044;-58
2022/03/03 05:03:57;;;;;;;46.47;23.85;;;-1.20;99.90;;;;;;5064351;28;20150;-56
2022/03/03 05:06:25;;;;;;;49.65;24.08;;;-1.20;99.90;;;;;;5064881;28;20505;-56
2022/03/03 05:08:51;;;;;;;46.22;25.10;;;-2.10;99.90;;;;;;5060771;28;20485;-56
2022/03/03 05:11:17;;;;;;;48.50;25.08;;;-1.20;99.90;;;;;;5059566;28;20127;-56
2022/03/03 05:13:42;;;;;;;44.58;23.85;;;-1.20;99.90;;;;;;5064109;28;20062;-55
2022/03/03 05:16:08;;;;;;;44.45;23.58;;;-1.80;99.90;;;;;;5066056;28;20127;-60
2022/03/03 05:18:34;;;;;;;48.92;25.20;;;-1.30;99.90;;;;;;5059040;28;20805;-56
2022/03/03 05:20:59;;;;;;;48.80;24.80;;;-0.20;99.90;;;;;;5057325;28;20045;-59
2022/03/03 05:23:25;;;;;;;45.20;23.38;;;-1.30;99.90;;;;;;5065395;28;20483;-56
2022/03/03 05:25:51;;;;;;;50.28;24.92;;;-1.30;99.90;;;;;;5063352;28;20131;-57
2022/03/03 05:28:17;;;;;;;41.97;22.75;;;-1.30;99.90;;;;;;5065114;28;20059;-67
2022/03/03 05:30:42;;;;;;;47.63;24.23;;;-1.30;99.90;;;;;;5058126;28;20048;-61
2022/03/03 05:33:08;;;;;;;45.40;23.00;;;-1.30;99.90;;;;;;5064843;28;20055;-60
2022/03/03 05:35:34;;;;;;;45.42;25.90;;;-1.40;99.90;;;;;;5066434;28;20137;-56
2022/03/03 05:38:00;;;;;;;41.72;22.45;;;-1.40;99.90;;;;;;5066292;28;20072;-60
2022/03/03 05:40:26;;;;;;;51.53;24.98;;;-1.40;99.90;;;;;;5060508;28;20089;-59
2022/03/03 05:42:52;;;;;;;49.47;26.65;;;-1.40;99.90;;;;;;5065048;28;20049;-60
2022/03/03 05:45:20;;;;;;;45.90;23.75;;;-1.40;99.90;;;;;;5064291;28;20048;-57
2022/03/03 05:47:46;;;;;;;47.72;26.83;;;-1.40;99.90;;;;;;5064810;28;20131;-69
2022/03/03 05:50:12;;;;;;;45.63;24.48;;;-1.40;99.90;;;;;;5056866;28;20045;-66
2022/03/03 05:52:38;;;;;;;49.70;24.33;;;-1.40;99.90;;;;;;5066575;28;20044;-65
2022/03/03 05:55:05;;;;;;;47.10;27.08;;;-1.40;99.90;;;;;;5064757;28;20482;-58
2022/03/03 05:57:36;;;;;;;46.67;23.90;;;-1.40;99.90;;;;;;5062997;28;20127;-60
2022/03/03 06:00:09;;;;;;;54.95;25.08;;;-1.10;99.90;;;;;;5060677;28;20048;-58
2022/03/03 06:02:35;;;;;;;44.67;25.05;;;-1.40;99.90;;;;;;5061715;28;20102;-56
2022/03/03 06:05:03;;;;;;;46.10;25.50;;;-1.40;99.90;;;;;;5064833;28;20123;-57
2022/03/03 06:07:29;;;;;;;47.47;24.30;;;-1.40;99.90;;;;;;5057460;28;20438;-61
2022/03/03 06:09:57;;;;;;;44.55;23.60;;;-1.40;99.90;;;;;;5060359;28;20078;-58
2022/03/03 06:12:32;;;;;;;44.80;23.63;;;-1.40;99.90;;;;;;5060393;28;20053;-58
2022/03/03 06:15:04;;;;;;;41.65;23.95;;;-1.40;99.90;;;;;;5048593;28;20045;-60
2022/03/03 06:17:31;;;;;;;53.22;26.92;;;-1.40;99.90;;;;;;5066117;28;20109;-56
2022/03/03 06:20:00;;;;;;;46.17;25.63;;;-1.40;99.90;;;;;;5064945;28;20040;-61
2022/03/03 06:22:26;;;;;;;44.05;24.70;;;-1.40;99.90;;;;;;5066509;28;20502;-64
2022/03/03 06:24:52;;;;;;;48.25;24.17;;;-1.20;99.90;;;;;;5064894;28;20131;-56
2022/03/03 06:27:17;;;;;;;51.72;25.98;;;-1.40;99.90;;;;;;5054623;28;20522;-56
2022/03/03 06:29:43;;;;;;;47.80;24.17;;;-1.40;99.90;;;;;;5062271;28;20049;-56
2022/03/03 06:32:09;;;;;;;48.08;25.27;;;-1.40;99.90;;;;;;5062534;28;20052;-60
2022/03/03 06:34:35;;;;;;;43.88;22.52;;;-1.40;99.90;;;;;;5064808;28;20147;-59
2022/03/03 06:37:01;;;;;;;44.42;23.92;;;-1.40;99.90;;;;;;5064405;28;20197;-56
2022/03/03 06:39:26;;;;;;;45.85;25.10;;;-0.90;99.90;;;;;;5063168;28;20038;-56
2022/03/03 06:41:52;;;;;;;47.50;25.77;;;-1.40;99.90;;;;;;5063040;28;20074;-57
2022/03/03 06:44:19;;;;;;;44.42;23.25;;;-1.40;99.90;;;;;;5054915;28;20152;-56
2022/03/03 06:46:45;;;;;;;46.67;24.23;;;-1.30;99.90;;;;;;5063161;28;20175;-55
2022/03/03 06:49:14;;;;;;;44.20;25.30;;;-0.50;99.90;;;;;;5052600;28;20061;-56
2022/03/03 06:51:47;;;;;;;44.45;24.25;;;-1.20;99.90;;;;;;5068959;28;20080;-58
2022/03/03 06:54:16;;;;;;;48.53;25.65;;;-1.20;99.90;;;;;;5068727;28;20088;-58
2022/03/03 06:56:46;;;;;;;56.17;26.08;;;-1.20;99.90;;;;;;5067902;28;20060;-56
2022/03/03 06:59:18;;;;;;;49.70;25.00;;;-1.10;99.90;;;;;;5061949;28;20083;-56
2022/03/03 07:01:46;;;;;;;51.47;26.42;;;-1.00;99.90;;;;;;5065240;28;20052;-56
2022/03/03 07:04:13;;;;;;;45.35;25.88;;;-0.90;99.90;;;;;;5065818;28;20043;-62
2022/03/03 07:06:39;;;;;;;50.08;26.17;;;-0.80;99.90;;;;;;5073289;28;20036;-63
2022/03/03 07:09:05;;;;;;;53.15;28.52;;;-0.80;99.90;;;;;;5059829;28;20518;-56
2022/03/03 07:11:32;;;;;;;55.50;27.15;;;-0.60;99.90;;;;;;5066725;28;20052;-56
2022/03/03 07:14:01;;;;;;;53.83;29.02;;;-0.50;99.90;;;;;;5053939;28;20051;-56
2022/03/03 07:16:41;;;;;;;55.08;28.40;;;0.40;99.90;;;;;;5062448;28;20051;-62
2022/03/03 07:19:39;;;;;;;47.65;26.23;;;-0.30;99.90;;;;;;5061413;28;20040;-59
2022/03/03 07:22:26;;;;;;;53.22;28.60;;;-0.20;99.90;;;;;;5057546;28;20072;-60
2022/03/03 07:25:08;;;;;;;50.28;27.08;;;0.00;99.90;;;;;;5056387;28;20498;-66
2022/03/03 07:27:34;;;;;;;51.78;28.42;;;0.00;99.90;;;;;;5053903;28;20052;-56
2022/03/03 07:30:02;;;;;;;53.50;27.65;;;0.10;99.90;;;;;;5064541;28;20051;-57
2022/03/03 07:32:53;;;;;;;46.30;28.52;;;0.30;99.90;;;;;;5065902;28;20573;-57
2022/03/03 07:35:22;;;;;;;53.10;27.90;;;0.30;99.90;;;;;;5057861;28;20052;-56
2022/03/03 07:37:55;;;;;;;56.75;29.52;;;0.40;99.90;;;;;;5066853;28;20125;-60
2022/03/03 07:40:21;;;;;;;56.03;28.98;;;0.50;99.90;;;;;;5060830;28;20496;-61
2022/03/03 07:42:47;;;;;;;59.50;29.90;;;0.50;99.90;;;;;;5055243;28;20132;-58
2022/03/03 07:45:12;;;;;;;52.45;26.20;;;0.60;99.90;;;;;;5062913;28;20241;-56
2022/03/03 07:47:39;;;;;;;59.00;30.05;;;0.70;99.90;;;;;;5067590;28;20437;-55
2022/03/03 07:50:06;;;;;;;57.85;28.92;;;0.80;99.90;;;;;;5066747;28;20102;-61
2022/03/03 07:52:32;;;;;;;57.63;28.67;;;0.90;99.90;;;;;;5066209;28;20060;-56
2022/03/03 07:54:58;;;;;;;51.17;28.45;;;1.10;99.90;;;;;;5065281;28;20080;-56
2022/03/03 07:57:32;;;;;;;49.92;27.38;;;1.30;99.90;;;;;;5067134;28;20132;-57
2022/03/03 08:00:07;;;;;;;55.50;27.30;;;1.40;99.90;;;;;;5066552;28;20036;-56
2022/03/03 08:02:34;;;;;;;48.00;26.13;;;1.40;99.90;;;;;;5067931;28;20394;-59
2022/03/03 08:05:01;;;;;;;49.58;26.75;;;1.50;99.90;;;;;;5062451;28;20513;-56
2022/03/03 08:07:28;;;;;;;55.08;28.25;;;1.60;99.90;;;;;;5056554;28;20071;-59
2022/03/03 08:10:00;;;;;;;51.95;27.95;;;1.70;99.90;;;;;;5067814;28;20129;-62
2022/03/03 08:12:30;;;;;;;57.30;29.23;;;1.90;99.90;;;;;;5066325;28;20101;-56
2022/03/03 08:14:57;;;;;;;54.83;29.52;;;2.10;99.90;;;;;;5067813;28;20395;-55
2022/03/03 08:17:24;;;;;;;49.20;27.70;;;2.20;99.90;;;;;;5065018;28;20048;-58
2022/03/03 08:19:52;;;;;;;47.03;27.90;;;2.40;99.90;;;;;;5065908;28;20542;-57
2022/03/03 08:22:18;;;;;;;55.80;29.92;;;2.50;99.90;;;;;;5053271;28;20037;-56
2022/03/03 08:24:45;;;;;;;51.38;28.02;;;2.70;99.90;;;;;;5071915;28;20044;-56
2022/03/03 08:27:12;;;;;;;47.22;26.23;;;2.70;99.90;;;;;;5065540;28;20055;-56
2022/03/03 08:29:38;;;;;;;52.78;27.52;;;2.80;99.90;;;;;;5056879;28;20048;-56
2022/03/03 08:32:10;;;;;;;52.10;28.55;;;3.00;99.90;;;;;;5066057;28;20095;-56
2022/03/03 08:35:11;;;;;;;51.17;26.38;;;3.10;99.90;;;;;;5066502;28;20044;-56
2022/03/03 08:37:39;;;;;;;43.72;25.50;;;3.20;99.90;;;;;;5051045;28;20106;-61
2022/03/03 08:40:07;;;;;;;49.58;26.20;;;3.30;99.90;;;;;;5067448;28;20434;-62
2022/03/03 08:42:39;;;;;;;48.90;27.67;;;3.50;99.90;;;;;;5067502;28;20443;-65
2022/03/03 08:45:09;;;;;;;48.65;25.52;;;3.50;99.90;;;;;;5066349;28;20119;-66
2022/03/03 08:47:35;;;;;;;39.45;23.00;;;3.60;99.90;;;;;;5065881;28;20510;-61
2022/03/03 08:50:11;;;;;;;45.80;25.98;;;3.70;99.90;;;;;;5067393;28;20036;-63
2022/03/03 08:52:42;;;;;;;41.70;23.20;;;3.80;99.90;;;;;;5067637;28;20049;-56
2022/03/03 08:55:09;;;;;;;41.50;24.30;;;4.00;99.90;;;;;;5067196;28;20106;-62
2022/03/03 08:57:37;;;;;;;45.97;23.98;;;4.10;99.90;;;;;;5066810;28;20095;-56
2022/03/03 09:00:10;;;;;;;42.85;22.02;;;4.50;99.90;;;;;;5067010;28;20120;-57
2022/03/03 09:02:36;;;;;;;41.42;22.75;;;4.60;99.90;;;;;;5059458;28;20052;-56
2022/03/03 09:05:03;;;;;;;39.75;22.38;;;4.80;99.90;;;;;;5059675;28;20368;-56
2022/03/03 09:07:30;;;;;;;41.35;24.35;;;4.90;99.90;;;;;;5056080;28;20056;-57
2022/03/03 09:09:55;;;;;;;40.33;22.48;;;5.00;99.90;;;;;;5056604;28;20045;-56
2022/03/03 09:12:21;;;;;;;42.80;22.42;;;5.20;99.90;;;;;;5053831;28;20056;-55
2022/03/03 09:14:47;;;;;;;37.60;21.60;;;5.40;99.90;;;;;;5054815;28;20502;-56
2022/03/03 09:17:13;;;;;;;37.45;21.13;;;5.70;99.90;;;;;;5057249;28;20044;-56
2022/03/03 09:19:38;;;;;;;42.60;24.40;;;5.90;99.90;;;;;;5056107;28;20040;-56
2022/03/03 09:22:04;;;;;;;44.38;23.17;;;6.20;99.90;;;;;;5057239;28;20036;-56
2022/03/03 09:24:31;;;;;;;38.03;22.88;;;6.50;99.90;;;;;;5056353;28;20053;-55
2022/03/03 09:26:57;;;;;;;33.17;19.20;;;6.80;99.90;;;;;;5058801;28;20041;-56
2022/03/03 09:29:23;;;;;;;37.30;20.42;;;7.10;99.90;;;;;;5053903;28;20079;-56
2022/03/03 09:31:50;;;;;;;35.38;20.50;;;7.50;99.90;;;;;;5060650;28;20054;-55
2022/03/03 09:34:16;;;;;;;33.78;20.08;;;7.80;99.90;;;;;;5064303;28;20044;-57
2022/03/03 09:36:42;;;;;;;33.92;19.65;;;8.20;99.90;;;;;;5064730;28;20057;-56
2022/03/03 09:39:08;;;;;;;29.55;19.38;;;8.50;99.90;;;;;;5065794;28;20083;-59
2022/03/03 09:41:34;;;;;;;31.70;18.40;;;8.90;99.90;;;;;;5066612;28;20822;-59
2022/03/03 09:44:00;;;;;;;31.95;18.40;;;9.20;99.90;;;;;;5065934;28;20053;-58
2022/03/03 09:46:25;;;;;;;28.85;19.15;;;9.70;99.90;;;;;;5064563;28;20055;-56
2022/03/03 09:48:51;;;;;;;30.08;18.17;;;10.00;99.90;;;;;;5065573;28;20501;-58
2022/03/03 09:51:17;;;;;;;32.05;20.05;;;10.40;99.90;;;;;;5066289;28;20055;-58
2022/03/03 09:53:44;;;;;;;27.13;16.85;;;10.70;99.90;;;;;;5065918;28;20677;-59
2022/03/03 09:56:10;;;;;;;32.08;19.52;;;11.00;99.90;;;;;;5062908;28;20062;-56
2022/03/03 09:58:36;;;;;;;26.73;17.52;;;11.30;99.90;;;;;;5063361;28;20055;-56
2022/03/03 10:01:03;;;;;;;29.00;16.67;;;11.50;99.90;;;;;;5064859;28;20513;-57
2022/03/03 10:03:33;;;;;;;24.98;15.45;;;11.70;99.90;;;;;;5065983;28;20048;-58
2022/03/03 10:06:00;;;;;;;27.05;16.50;;;12.10;99.90;;;;;;5065821;28;20079;-57
2022/03/03 10:08:28;;;;;;;26.35;17.63;;;12.20;99.90;;;;;;5065870;28;20435;-58
2022/03/03 10:11:02;;;;;;;24.35;16.13;;;12.50;99.90;;;;;;5065777;28;20049;-56
2022/03/03 10:13:45;;;;;;;;;;;12.70;99.90;;;;;;5066864;28;20086;-56
2022/03/03 10:16:10;;;;;;;23.08;16.50;;;12.60;99.90;;;;;;5056785;28;20416;-56
2022/03/03 10:18:36;;;;;;;25.70;16.50;;;13.00;99.90;;;;;;5064913;28;20048;-55
2022/03/03 10:21:04;;;;;;;29.13;17.38;;;13.20;99.90;;;;;;5065532;28;20379;-56
2022/03/03 10:23:35;;;;;;;28.95;18.20;;;13.30;99.90;;;;;;5069667;28;20084;-56
2022/03/03 10:26:04;;;;;;;23.48;17.40;;;13.40;99.90;;;;;;5069696;28;20536;-56
2022/03/03 10:28:35;;;;;;;24.55;16.00;;;13.70;99.90;;;;;;5063334;28;20266;-56
2022/03/03 10:31:09;;;;;;;22.65;16.20;;;13.90;99.90;;;;;;5067396;28;20048;-56
2022/03/03 10:33:51;;;;;;;24.95;16.67;;;13.90;99.90;;;;;;5068551;28;20048;-56
2022/03/03 10:36:21;;;;;;;22.67;16.58;;;14.00;99.90;;;;;;5069137;28;20854;-56
2022/03/03 10:38:53;;;;;;;20.90;15.65;;;14.20;99.90;;;;;;5070390;28;20451;-56
2022/03/03 10:41:42;;;;;;;24.20;16.60;;;14.30;99.90;;;;;;5070034;28;20052;-56
2022/03/03 10:44:20;;;;;;;22.85;15.98;;;14.30;99.90;;;;;;5062976;28;20053;-56
2022/03/03 10:47:08;;;;;;;21.27;16.10;;;14.40;99.90;;;;;;5056094;28;20106;-56
2022/03/03 10:49:40;;;;;;;19.95;14.35;;;14.40;99.90;;;;;;5052390;28;20048;-56
2022/03/03 10:52:16;;;;;;;21.90;14.45;;;14.20;99.90;;;;;;5057713;28;20189;-56
2022/03/03 10:54:48;;;;;;;21.20;14.10;;;14.30;99.90;;;;;;5066057;28;20450;-56
2022/03/03 10:57:38;;;;;;;18.90;14.07;;;14.40;99.90;;;;;;5049611;28;20487;-56
2022/03/03 11:00:31;;;;;;;21.10;14.25;;;14.40;99.90;;;;;;5065487;28;20135;-56
2022/03/03 11:02:59;;;;;;;21.73;15.13;;;14.50;99.90;;;;;;5061633;28;20057;-56
2022/03/03 11:05:29;;;;;;;21.27;14.40;;;14.40;99.90;;;;;;5066169;28;20040;-56
2022/03/03 11:07:58;;;;;;;20.92;14.73;;;14.50;99.90;;;;;;5065824;28;20398;-56
2022/03/03 11:10:26;;;;;;;25.75;15.38;;;14.50;99.90;;;;;;5065902;28;20055;-56
2022/03/03 11:12:52;;;;;;;23.15;15.88;;;14.50;99.90;;;;;;5054288;28;20490;-57
2022/03/03 11:15:20;;;;;;;20.38;14.80;;;14.70;99.90;;;;;;5065741;28;20044;-57
2022/03/03 11:17:47;;;;;;;21.88;15.60;;;14.70;99.90;;;;;;5066544;28;20127;-57
2022/03/03 11:20:16;;;;;;;20.83;14.80;;;14.70;99.10;;;;;;5065065;28;20129;-57
2022/03/03 11:22:43;;;;;;;22.88;15.77;;;14.70;99.90;;;;;;5065955;28;20056;-58
2022/03/03 11:25:13;;;;;;;21.27;15.27;;;14.80;99.90;;;;;;5064969;28;20611;-57
2022/03/03 11:27:41;;;;;;;22.08;14.43;;;14.70;99.90;;;;;;5061421;28;20129;-58
2022/03/03 11:30:25;;;;;;;21.02;15.18;;;14.80;99.90;;;;;;5065739;28;20072;-56
2022/03/03 11:33:30;;;;;;;18.30;13.25;;;14.90;99.00;;;;;;5064260;28;20486;-58
2022/03/03 11:36:00;;;;;;;20.08;14.40;;;15.00;98.70;;;;;;5061711;28;20055;-57
2022/03/03 11:38:53;;;;;;;23.92;15.48;;;15.10;99.90;;;;;;5056937;28;20081;-57
2022/03/03 11:41:25;;;;;;;20.95;14.80;;;17.70;97.10;;;;;;5056782;28;20500;-57
2022/03/03 11:44:01;;;;;;;22.10;14.77;;;20.10;95.90;;;;;;5056979;28;20037;-59
2022/03/03 11:47:16;;;;;;;15.85;12.82;;;21.40;91.20;;;;;;5056071;28;20126;-56
2022/03/03 11:50:08;;;;;;;15.35;11.27;;;22.30;84.30;;;;;;5015495;28;20482;-57
2022/03/03 11:52:38;;;;;;;18.70;13.75;;;23.60;84.80;;;;;;5059259;28;20568;-59
2022/03/03 11:55:31;;;;;;;16.15;12.73;;;24.60;83.60;;;;;;5065462;28;20052;-58
2022/03/03 11:58:10;;;;;;;16.58;12.82;;;25.20;78.60;;;;;;5064944;28;20056;-59
2022/03/03 12:00:47;;;;;;;21.50;14.82;;;25.30;78.50;;;;;;5062821;28;20129;-57
2022/03/03 12:03:15;;;;;;;18.48;13.65;;;26.50;75.30;;;;;;5048503;28;20364;-57
2022/03/03 12:05:45;;;;;;;19.77;13.75;;;26.90;75.90;;;;;;5064628;28;20127;-57
2022/03/03 12:08:11;;;;;;;18.27;14.50;;;27.10;73.90;;;;;;5064989;28;20052;-60
2022/03/03 12:10:38;;;;;;;19.08;15.43;;;27.20;74.20;;;;;;5064713;28;20049;-61
2022/03/03 12:13:38;;;;;;;18.08;14.43;;;27.40;73.20;;;;;;5053800;28;20403;-57
2022/03/03 12:16:34;;;;;;;19.42;14.18;;;27.70;69.20;;;;;;5042279;28;20566;-56
2022/03/03 12:19:00;;;;;;;20.20;14.48;;;26.80;69.60;;;;;;5065091;28;20082;-56
2022/03/03 12:21:43;;;;;;;17.80;13.23;;;27.60;69.10;;;;;;5064057;28;20418;-56
2022/03/03 12:24:14;;;;;;;16.13;11.85;;;27.00;67.40;;;;;;5066412;28;20053;-57
2022/03/03 12:26:55;;;;;;;17.55;12.85;;;26.30;66.60;;;;;;5066818;28;20058;-57
2022/03/03 12:29:38;;;;;;;16.42;11.77;;;23.80;66.00;;;;;;5051296;28;20140;-56
2022/03/03 12:32:40;;;;;;;15.80;11.30;;;21.70;68.70;;;;;;5065601;28;20044;-56
2022/03/03 12:35:29;;;;;;;14.45;10.40;;;20.10;71.30;;;;;;5065421;28;20225;-56
2022/03/03 12:37:59;;;;;;;14.82;10.90;;;19.30;74.90;;;;;;5065898;28;20485;-56
2022/03/03 12:40:29;;;;;;;12.60;9.45;;;18.60;76.00;;;;;;5065891;28;20160;-56
2022/03/03 12:42:55;;;;;;;12.82;9.82;;;18.20;77.30;;;;;;5049128;28;20382;-57